createdAt,value
2022-10-06T00:00:11.058Z,13.95
2022-10-06T00:00:42.643Z,13.73
2022-10-06T00:01:16.712Z,14.35
2022-10-06T00:01:48.312Z,13.30
2022-10-06T00:02:19.945Z,13.60
2022-10-06T00:02:51.618Z,13.93
2022-10-06T00:03:23.311Z,14.27
2022-10-06T00:03:54.828Z,14.40
2022-10-06T00:04:26.371Z,14.45
2022-10-06T00:04:57.870Z,15.02
2022-10-06T00:05:29.442Z,15.25
2022-10-06T00:06:02.801Z,14.80
2022-10-06T00:06:34.333Z,13.27
2022-10-06T00:07:05.935Z,14.43
2022-10-06T00:07:37.511Z,13.60
2022-10-06T00:08:10.375Z,14.48
2022-10-06T00:08:43.576Z,13.43
2022-10-06T00:09:15.086Z,16.58
2022-10-06T00:09:46.722Z,15.27
2022-10-06T00:10:18.656Z,15.95
2022-10-06T00:10:55.110Z,13.52
2022-10-06T00:11:26.693Z,16.67
2022-10-06T00:11:59.061Z,16.10
2022-10-06T00:12:30.707Z,17.40
2022-10-06T00:13:02.307Z,14.80
2022-10-06T00:13:34.927Z,15.20
2022-10-06T00:14:06.487Z,17.00
2022-10-06T00:14:38.039Z,16.25
2022-10-06T00:15:12.048Z,13.60
2022-10-06T00:15:43.567Z,14.05
2022-10-06T00:16:17.850Z,14.88
2022-10-06T00:16:49.438Z,16.85
2022-10-06T00:17:21.018Z,14.57
2022-10-06T00:17:52.554Z,16.90
2022-10-06T00:18:24.354Z,15.00
2022-10-06T00:18:56.955Z,15.90
2022-10-06T00:19:28.502Z,13.65
2022-10-06T00:19:59.995Z,15.65
2022-10-06T00:20:31.578Z,15.57
2022-10-06T00:21:04.195Z,14.23
2022-10-06T00:21:36.078Z,14.75
2022-10-06T00:22:07.590Z,14.95
2022-10-06T00:22:42.702Z,14.75
2022-10-06T00:23:14.590Z,15.75
2022-10-06T00:23:46.132Z,16.98
2022-10-06T00:24:18.596Z,15.77
2022-10-06T00:24:50.158Z,14.52
2022-10-06T00:25:23.602Z,16.80
2022-10-06T00:25:55.253Z,13.13
2022-10-06T00:26:27.127Z,15.85
2022-10-06T00:26:58.647Z,12.15
2022-10-06T00:27:34.896Z,14.27
2022-10-06T00:28:06.438Z,15.25
2022-10-06T00:28:38.065Z,17.52
2022-10-06T00:29:09.864Z,13.50
2022-10-06T00:29:42.472Z,15.30
2022-10-06T00:30:19.388Z,14.60
2022-10-06T00:30:53.587Z,13.32
2022-10-06T00:31:25.300Z,13.70
2022-10-06T00:31:56.850Z,13.75
2022-10-06T00:32:28.387Z,13.02
2022-10-06T00:33:02.953Z,15.82
2022-10-06T00:33:34.495Z,14.43
2022-10-06T00:34:05.998Z,16.42
2022-10-06T00:34:37.493Z,16.08
2022-10-06T00:35:09.951Z,13.90
2022-10-06T00:35:42.220Z,13.55
2022-10-06T00:36:13.799Z,13.57
2022-10-06T00:36:45.310Z,14.23
2022-10-06T00:37:16.802Z,13.90
2022-10-06T00:37:48.329Z,13.88
2022-10-06T00:38:19.843Z,14.18
2022-10-06T00:38:51.365Z,16.25
2022-10-06T00:39:22.908Z,13.88
2022-10-06T00:39:55.040Z,16.88
2022-10-06T00:40:27.212Z,15.20
2022-10-06T00:40:58.710Z,15.23
2022-10-06T00:41:30.266Z,12.50
2022-10-06T00:42:01.972Z,14.85
2022-10-06T00:42:33.494Z,15.43
2022-10-06T00:43:06.284Z,13.13
2022-10-06T00:43:48.523Z,15.43
2022-10-06T00:44:20.041Z,14.77
2022-10-06T00:44:51.595Z,12.50
2022-10-06T00:45:26.194Z,13.88
2022-10-06T00:45:57.744Z,13.95
2022-10-06T00:46:56.392Z,14.27
2022-10-06T00:47:31.071Z,14.57
2022-10-06T00:48:07.843Z,15.98
2022-10-06T00:48:39.982Z,13.30
2022-10-06T00:49:37.838Z,13.77
2022-10-06T00:50:11.750Z,16.13
2022-10-06T00:50:44.056Z,14.98
2022-10-06T00:51:15.855Z,15.13
2022-10-06T00:51:51.531Z,14.20
2022-10-06T00:52:26.579Z,15.73
2022-10-06T00:52:59.843Z,14.25
2022-10-06T00:53:32.309Z,13.43
2022-10-06T00:54:03.970Z,14.10
2022-10-06T00:54:36.368Z,15.32
2022-10-06T00:55:09.442Z,14.82
2022-10-06T00:55:41.013Z,17.83
2022-10-06T00:56:12.545Z,15.57
2022-10-06T00:56:45.045Z,14.23
2022-10-06T00:57:17.376Z,14.68
2022-10-06T00:57:52.393Z,14.23
2022-10-06T00:58:24.976Z,16.65
2022-10-06T00:58:56.892Z,13.82
2022-10-06T00:59:28.547Z,13.85
2022-10-06T01:00:00.063Z,15.65
2022-10-06T01:00:32.624Z,15.20
2022-10-06T01:01:04.289Z,13.38
2022-10-06T01:01:36.812Z,16.23
2022-10-06T01:02:34.261Z,15.43
2022-10-06T01:03:31.750Z,13.63
2022-10-06T01:04:09.130Z,12.82
2022-10-06T01:04:47.980Z,18.13
2022-10-06T01:05:44.987Z,15.77
2022-10-06T01:06:16.638Z,15.27
2022-10-06T01:06:54.823Z,13.77
2022-10-06T01:07:28.316Z,14.90
2022-10-06T01:08:00.064Z,16.08
2022-10-06T01:08:33.150Z,15.30
2022-10-06T01:09:05.223Z,16.58
2022-10-06T01:09:37.275Z,14.15
2022-10-06T01:10:09.291Z,16.40
2022-10-06T01:10:40.822Z,16.95
2022-10-06T01:11:14.371Z,15.13
2022-10-06T01:11:50.123Z,16.48
2022-10-06T01:12:22.524Z,16.50
2022-10-06T01:12:54.567Z,14.57
2022-10-06T01:13:27.437Z,17.08
2022-10-06T01:13:59.023Z,16.90
2022-10-06T01:14:31.272Z,15.23
2022-10-06T01:15:03.183Z,16.85
2022-10-06T01:15:34.834Z,15.45
2022-10-06T01:16:16.444Z,15.63
2022-10-06T01:16:54.512Z,16.35
2022-10-06T01:17:52.746Z,15.43
2022-10-06T01:18:27.204Z,15.05
2022-10-06T01:19:01.001Z,15.25
2022-10-06T01:19:53.503Z,15.35
2022-10-06T01:20:25.414Z,16.10
2022-10-06T01:21:13.925Z,16.35
2022-10-06T01:21:48.774Z,15.85
2022-10-06T01:22:43.129Z,14.60
2022-10-06T01:23:15.199Z,17.05
2022-10-06T01:23:46.925Z,20.05
2022-10-06T01:24:18.939Z,15.38
2022-10-06T01:24:52.648Z,17.52
2022-10-06T01:25:24.365Z,16.05
2022-10-06T01:25:56.671Z,16.13
2022-10-06T01:26:30.834Z,14.95
2022-10-06T01:27:04.110Z,15.63
2022-10-06T01:27:38.186Z,16.13
2022-10-06T01:28:10.770Z,18.35
2022-10-06T01:28:42.531Z,15.63
2022-10-06T01:29:14.360Z,15.38
2022-10-06T01:29:46.138Z,16.40
2022-10-06T01:30:39.586Z,17.02
2022-10-06T01:31:11.188Z,15.50
2022-10-06T01:31:43.080Z,15.23
2022-10-06T01:32:14.681Z,17.15
2022-10-06T01:32:46.254Z,15.70
2022-10-06T01:33:18.815Z,16.20
2022-10-06T01:33:56.744Z,14.05
2022-10-06T01:34:28.356Z,17.70
2022-10-06T01:35:00.019Z,16.77
2022-10-06T01:35:31.576Z,15.88
2022-10-06T01:36:03.999Z,15.07
2022-10-06T01:36:35.598Z,15.15
2022-10-06T01:37:07.110Z,14.70
2022-10-06T01:37:38.670Z,15.18
2022-10-06T01:38:10.172Z,15.68
2022-10-06T01:38:41.716Z,14.95
2022-10-06T01:39:13.226Z,17.35
2022-10-06T01:39:45.262Z,19.08
2022-10-06T01:40:19.160Z,15.98
2022-10-06T01:40:53.063Z,14.70
2022-10-06T01:41:26.434Z,15.73
2022-10-06T01:41:57.964Z,16.52
2022-10-06T01:42:31.903Z,13.57
2022-10-06T01:43:03.472Z,16.58
2022-10-06T01:43:35.059Z,14.38
2022-10-06T01:44:06.572Z,14.65
2022-10-06T01:44:38.119Z,15.68
2022-10-06T01:45:10.119Z,19.90
2022-10-06T01:45:41.714Z,15.15
2022-10-06T01:46:13.362Z,14.35
2022-10-06T01:46:44.956Z,14.93
2022-10-06T01:47:16.962Z,12.52
2022-10-06T01:47:48.488Z,12.18
2022-10-06T01:48:19.988Z,13.30
2022-10-06T01:48:51.546Z,14.45
2022-10-06T01:49:23.077Z,12.48
2022-10-06T01:49:54.656Z,13.73
2022-10-06T01:50:26.235Z,14.13
2022-10-06T01:50:57.855Z,14.13
2022-10-06T01:51:29.349Z,13.60
2022-10-06T01:52:01.730Z,12.50
2022-10-06T01:52:33.242Z,14.20
2022-10-06T01:53:04.767Z,14.55
2022-10-06T01:53:36.279Z,15.00
2022-10-06T01:54:07.780Z,15.07
2022-10-06T01:54:39.356Z,15.50
2022-10-06T01:55:10.905Z,14.38
2022-10-06T01:55:42.533Z,14.88
2022-10-06T01:56:14.165Z,13.23
2022-10-06T01:56:45.673Z,14.05
2022-10-06T01:57:17.165Z,12.80
2022-10-06T01:57:48.671Z,13.88
2022-10-06T01:58:20.181Z,13.77
2022-10-06T01:58:51.730Z,11.50
2022-10-06T01:59:24.559Z,14.85
2022-10-06T01:59:56.065Z,13.50
2022-10-06T02:01:09.386Z,14.18
2022-10-06T02:01:41.141Z,15.45
2022-10-06T02:02:12.704Z,14.70
2022-10-06T02:02:44.905Z,13.30
2022-10-06T02:03:17.037Z,14.77
2022-10-06T02:03:48.549Z,13.10
2022-10-06T02:04:20.151Z,14.98
2022-10-06T02:04:51.674Z,12.43
2022-10-06T02:05:23.184Z,12.60
2022-10-06T02:05:56.862Z,14.00
2022-10-06T02:06:28.939Z,14.98
2022-10-06T02:07:00.494Z,15.07
2022-10-06T02:07:32.111Z,13.05
2022-10-06T02:08:03.919Z,15.13
2022-10-06T02:08:35.453Z,15.23
2022-10-06T02:09:07.043Z,13.55
2022-10-06T02:09:38.605Z,13.50
2022-10-06T02:10:10.194Z,13.60
2022-10-06T02:10:41.709Z,14.38
2022-10-06T02:11:13.542Z,15.00
2022-10-06T02:11:45.074Z,15.05
2022-10-06T02:12:16.646Z,13.93
2022-10-06T02:12:54.783Z,14.07
2022-10-06T02:13:27.932Z,12.80
2022-10-06T02:14:01.535Z,13.63
2022-10-06T02:14:34.788Z,14.35
2022-10-06T02:15:06.934Z,13.18
2022-10-06T02:15:38.493Z,13.35
2022-10-06T02:16:12.465Z,13.70
2022-10-06T02:16:44.878Z,15.32
2022-10-06T02:17:16.466Z,15.05
2022-10-06T02:17:48.686Z,13.25
2022-10-06T02:18:20.203Z,14.38
2022-10-06T02:18:51.714Z,14.70
2022-10-06T02:19:23.283Z,13.57
2022-10-06T02:19:54.931Z,14.32
2022-10-06T02:20:26.474Z,17.08
2022-10-06T02:20:57.998Z,15.02
2022-10-06T02:21:29.536Z,17.90
2022-10-06T02:22:01.205Z,15.05
2022-10-06T02:22:37.086Z,16.05
2022-10-06T02:23:08.756Z,15.65
2022-10-06T02:23:40.433Z,14.77
2022-10-06T02:24:12.007Z,14.68
2022-10-06T02:24:43.534Z,15.13
2022-10-06T02:25:15.606Z,14.13
2022-10-06T02:25:47.138Z,15.88
2022-10-06T02:26:19.044Z,16.10
2022-10-06T02:26:50.570Z,16.55
2022-10-06T02:27:22.083Z,14.75
2022-10-06T02:27:55.107Z,13.35
2022-10-06T02:28:27.312Z,15.23
2022-10-06T02:28:59.478Z,13.98
2022-10-06T02:29:30.991Z,14.98
2022-10-06T02:30:02.516Z,15.32
2022-10-06T02:30:34.146Z,15.80
2022-10-06T02:31:09.680Z,14.93
2022-10-06T02:31:41.397Z,13.63
2022-10-06T02:32:13.033Z,14.93
2022-10-06T02:32:44.622Z,16.85
2022-10-06T02:33:16.969Z,15.80
2022-10-06T02:33:48.502Z,16.58
2022-10-06T02:34:20.018Z,14.73
2022-10-06T02:34:51.534Z,13.38
2022-10-06T02:35:23.454Z,15.65
2022-10-06T02:35:56.241Z,15.35
2022-10-06T02:36:27.843Z,15.25
2022-10-06T02:36:59.358Z,14.13
2022-10-06T02:37:31.006Z,15.40
2022-10-06T02:38:02.522Z,16.02
2022-10-06T02:38:34.797Z,14.68
2022-10-06T02:39:06.325Z,19.23
2022-10-06T02:39:37.856Z,11.88
2022-10-06T02:40:10.174Z,15.25
2022-10-06T02:40:42.135Z,15.82
2022-10-06T02:41:13.817Z,13.27
2022-10-06T02:41:45.756Z,15.98
2022-10-06T02:42:17.279Z,15.75
2022-10-06T02:42:50.046Z,14.65
2022-10-06T02:43:22.074Z,13.20
2022-10-06T02:43:55.249Z,14.18
2022-10-06T02:44:26.866Z,14.75
2022-10-06T02:44:59.474Z,12.68
2022-10-06T02:45:31.562Z,16.13
2022-10-06T02:46:12.731Z,13.55
2022-10-06T02:46:44.341Z,12.50
2022-10-06T02:47:16.354Z,15.93
2022-10-06T02:47:47.864Z,14.50
2022-10-06T02:48:19.514Z,16.35
2022-10-06T02:48:53.777Z,13.30
2022-10-06T02:49:25.448Z,13.68
2022-10-06T02:49:56.979Z,14.85
2022-10-06T02:50:28.510Z,14.20
2022-10-06T02:51:02.464Z,14.45
2022-10-06T02:51:34.179Z,13.80
2022-10-06T02:52:06.240Z,16.20
2022-10-06T02:52:40.988Z,14.10
2022-10-06T02:53:12.504Z,15.30
2022-10-06T02:53:45.864Z,14.25
2022-10-06T02:54:17.610Z,17.85
2022-10-06T02:54:50.705Z,14.95
2022-10-06T02:55:22.243Z,13.85
2022-10-06T02:56:00.737Z,13.73
2022-10-06T02:56:32.347Z,14.73
2022-10-06T02:57:03.967Z,13.63
2022-10-06T02:57:35.510Z,13.75
2022-10-06T02:58:07.022Z,14.70
2022-10-06T02:58:43.083Z,14.05
2022-10-06T02:59:14.891Z,14.30
2022-10-06T02:59:46.720Z,15.00
2022-10-06T03:00:18.381Z,14.57
2022-10-06T03:00:49.913Z,14.32
2022-10-06T03:01:24.134Z,15.77
2022-10-06T03:01:55.920Z,14.98
2022-10-06T03:02:30.408Z,16.33
2022-10-06T03:03:02.118Z,15.68
2022-10-06T03:03:37.589Z,15.07
2022-10-06T03:04:09.216Z,14.45
2022-10-06T03:04:40.838Z,16.73
2022-10-06T03:05:12.426Z,14.27
2022-10-06T03:05:43.930Z,15.13
2022-10-06T03:06:24.499Z,16.33
2022-10-06T03:06:56.282Z,16.13
2022-10-06T03:07:27.871Z,14.57
2022-10-06T03:07:59.416Z,15.90
2022-10-06T03:08:31.611Z,14.70
2022-10-06T03:09:06.658Z,16.20
2022-10-06T03:09:38.179Z,16.58
2022-10-06T03:10:09.786Z,18.70
2022-10-06T03:10:41.299Z,15.60
2022-10-06T03:11:13.356Z,15.63
2022-10-06T03:11:45.358Z,16.38
2022-10-06T03:12:16.878Z,14.98
2022-10-06T03:12:48.400Z,17.23
2022-10-06T03:13:19.903Z,15.52
2022-10-06T03:13:52.555Z,16.48
2022-10-06T03:14:24.179Z,16.55
2022-10-06T03:14:55.680Z,15.32
2022-10-06T03:15:27.230Z,15.20
2022-10-06T03:15:58.839Z,15.57
2022-10-06T03:16:36.314Z,15.25
2022-10-06T03:17:09.886Z,14.13
2022-10-06T03:17:41.488Z,16.45
2022-10-06T03:18:13.450Z,14.30
2022-10-06T03:18:46.267Z,16.02
2022-10-06T03:19:17.783Z,15.60
2022-10-06T03:19:49.350Z,14.30
2022-10-06T03:20:20.889Z,15.68
2022-10-06T03:20:54.207Z,17.05
2022-10-06T03:21:28.314Z,14.35
2022-10-06T03:21:59.856Z,14.05
2022-10-06T03:22:31.406Z,13.98
2022-10-06T03:23:02.915Z,14.35
2022-10-06T03:23:34.417Z,13.45
2022-10-06T03:24:06.101Z,14.57
2022-10-06T03:24:37.628Z,15.15
2022-10-06T03:25:09.784Z,15.50
2022-10-06T03:25:41.302Z,13.68
2022-10-06T03:26:13.197Z,14.63
2022-10-06T03:26:47.567Z,14.07
2022-10-06T03:27:19.170Z,13.80
2022-10-06T03:27:51.051Z,15.32
2022-10-06T03:28:22.627Z,15.43
2022-10-06T03:28:55.186Z,13.98
2022-10-06T03:29:26.970Z,15.25
2022-10-06T03:29:58.598Z,14.70
2022-10-06T03:30:30.130Z,14.18
2022-10-06T03:31:03.307Z,17.13
2022-10-06T03:31:35.311Z,16.10
2022-10-06T03:32:07.074Z,13.15
2022-10-06T03:32:38.638Z,14.13
2022-10-06T03:33:10.160Z,15.75
2022-10-06T03:33:41.969Z,13.95
2022-10-06T03:34:15.490Z,15.15
2022-10-06T03:34:47.737Z,17.90
2022-10-06T03:35:19.337Z,13.70
2022-10-06T03:35:59.217Z,16.25
2022-10-06T03:36:33.384Z,15.45
2022-10-06T03:37:04.895Z,16.92
2022-10-06T03:37:36.412Z,15.43
2022-10-06T03:38:07.938Z,14.57
2022-10-06T03:38:39.662Z,14.40
2022-10-06T03:39:11.302Z,16.23
2022-10-06T03:39:43.032Z,19.92
2022-10-06T03:40:14.925Z,14.93
2022-10-06T03:40:46.472Z,14.18
2022-10-06T03:41:23.233Z,15.00
2022-10-06T03:41:54.802Z,16.27
2022-10-06T03:42:26.366Z,15.15
2022-10-06T03:42:57.870Z,15.35
2022-10-06T03:43:29.398Z,13.13
2022-10-06T03:44:01.593Z,16.55
2022-10-06T03:44:35.078Z,16.65
2022-10-06T03:45:07.134Z,16.40
2022-10-06T03:45:38.655Z,15.07
2022-10-06T03:46:12.666Z,13.38
2022-10-06T03:46:44.261Z,14.63
2022-10-06T03:47:17.373Z,12.85
2022-10-06T03:47:49.287Z,14.27
2022-10-06T03:48:20.798Z,13.80
2022-10-06T03:48:52.689Z,15.18
2022-10-06T03:49:24.238Z,15.05
2022-10-06T03:49:55.761Z,17.40
2022-10-06T03:50:27.307Z,14.95
2022-10-06T03:51:13.643Z,16.70
2022-10-06T03:51:45.163Z,15.13
2022-10-06T03:52:16.839Z,14.95
2022-10-06T03:52:51.372Z,15.75
2022-10-06T03:53:27.943Z,13.27
2022-10-06T03:54:00.555Z,15.15
2022-10-06T03:54:32.129Z,13.40
2022-10-06T03:55:03.927Z,14.18
2022-10-06T03:55:35.433Z,13.93
2022-10-06T03:56:15.059Z,15.13
2022-10-06T03:56:46.590Z,15.63
2022-10-06T03:57:18.119Z,15.15
2022-10-06T03:57:49.692Z,13.90
2022-10-06T03:58:21.202Z,15.02
2022-10-06T03:58:55.295Z,14.55
2022-10-06T03:59:29.150Z,13.23
2022-10-06T04:00:01.838Z,14.80
2022-10-06T04:00:33.394Z,16.45
2022-10-06T04:01:08.124Z,14.00
2022-10-06T04:01:42.702Z,13.85
2022-10-06T04:02:14.551Z,13.90
2022-10-06T04:02:46.074Z,14.13
2022-10-06T04:03:20.261Z,13.85
2022-10-06T04:03:54.171Z,15.45
2022-10-06T04:04:26.054Z,13.88
2022-10-06T04:04:57.593Z,13.13
2022-10-06T04:05:29.108Z,12.48
2022-10-06T04:06:03.526Z,14.23
2022-10-06T04:06:39.955Z,14.50
2022-10-06T04:07:11.482Z,17.70
2022-10-06T04:07:43.108Z,13.23
2022-10-06T04:08:14.619Z,15.77
2022-10-06T04:08:48.142Z,18.17
2022-10-06T04:09:19.684Z,13.85
2022-10-06T04:09:51.193Z,14.38
2022-10-06T04:10:22.695Z,15.85
2022-10-06T04:10:54.516Z,14.63
2022-10-06T04:11:32.540Z,14.05
2022-10-06T04:12:04.286Z,13.63
2022-10-06T04:12:36.129Z,13.60
2022-10-06T04:13:07.647Z,14.73
2022-10-06T04:13:40.348Z,15.70
2022-10-06T04:14:15.159Z,12.07
2022-10-06T04:14:46.820Z,14.90
2022-10-06T04:15:18.330Z,15.13
2022-10-06T04:15:49.883Z,16.80
2022-10-06T04:16:23.211Z,13.30
2022-10-06T04:16:54.893Z,12.98
2022-10-06T04:17:26.414Z,14.20
2022-10-06T04:17:57.929Z,14.45
2022-10-06T04:18:29.658Z,14.80
2022-10-06T04:19:05.442Z,15.77
2022-10-06T04:19:37.046Z,13.38
2022-10-06T04:20:08.617Z,13.63
2022-10-06T04:20:40.352Z,11.60
2022-10-06T04:21:13.370Z,14.63
2022-10-06T04:21:46.932Z,14.43
2022-10-06T04:22:18.783Z,15.40
2022-10-06T04:22:50.523Z,12.73
2022-10-06T04:23:22.027Z,13.15
2022-10-06T04:23:54.962Z,14.65
2022-10-06T04:24:26.550Z,14.43
2022-10-06T04:24:58.054Z,13.60
2022-10-06T04:25:29.641Z,13.02
2022-10-06T04:26:02.939Z,13.77
2022-10-06T04:26:36.974Z,15.57
2022-10-06T04:27:27.093Z,12.75
2022-10-06T04:27:59.406Z,15.52
2022-10-06T04:28:31.851Z,14.10
2022-10-06T04:29:04.242Z,15.32
2022-10-06T04:29:35.749Z,14.05
2022-10-06T04:30:07.626Z,14.57
2022-10-06T04:30:39.147Z,15.60
2022-10-06T04:31:40.976Z,14.32
2022-10-06T04:32:12.999Z,15.73
2022-10-06T04:32:45.721Z,13.82
2022-10-06T04:33:17.743Z,12.35
2022-10-06T04:33:54.880Z,15.15
2022-10-06T04:34:26.384Z,18.98
2022-10-06T04:34:57.901Z,16.35
2022-10-06T04:35:29.453Z,13.32
2022-10-06T04:36:04.630Z,15.13
2022-10-06T04:36:40.094Z,13.70
2022-10-06T04:37:11.618Z,12.98
2022-10-06T04:37:43.330Z,14.57
2022-10-06T04:38:15.415Z,14.52
2022-10-06T04:38:46.963Z,14.73
2022-10-06T04:39:18.464Z,13.27
2022-10-06T04:39:49.998Z,15.07
2022-10-06T04:40:21.655Z,18.15
2022-10-06T04:40:53.326Z,14.15
2022-10-06T04:41:33.428Z,14.80
2022-10-06T04:42:04.988Z,14.70
2022-10-06T04:42:37.142Z,15.27
2022-10-06T04:43:08.667Z,16.08
2022-10-06T04:43:40.300Z,14.73
2022-10-06T04:44:11.814Z,15.55
2022-10-06T04:44:43.335Z,16.08
2022-10-06T04:45:14.973Z,14.85
2022-10-06T04:45:46.613Z,14.85
2022-10-06T04:46:41.466Z,13.05
2022-10-06T04:47:11.274Z,15.77
2022-10-06T04:47:42.804Z,15.00
2022-10-06T04:48:14.360Z,14.25
2022-10-06T04:48:46.527Z,15.70
2022-10-06T04:49:20.225Z,16.02
2022-10-06T04:49:51.970Z,12.95
2022-10-06T04:50:24.035Z,17.73
2022-10-06T04:51:00.322Z,15.90
2022-10-06T04:51:32.034Z,15.05
2022-10-06T04:52:03.939Z,14.77
2022-10-06T04:52:35.451Z,15.50
2022-10-06T04:53:06.970Z,13.85
2022-10-06T04:53:39.261Z,13.73
2022-10-06T04:54:10.915Z,18.35
2022-10-06T04:54:42.462Z,14.88
2022-10-06T04:55:13.999Z,14.85
2022-10-06T04:55:45.507Z,18.15
2022-10-06T04:56:24.114Z,12.68
2022-10-06T04:56:56.734Z,14.10
2022-10-06T04:57:28.246Z,15.82
2022-10-06T04:57:59.758Z,13.93
2022-10-06T04:58:36.221Z,13.40
2022-10-06T04:59:07.775Z,17.88
2022-10-06T04:59:59.512Z,15.55
2022-10-06T05:00:34.710Z,14.75
2022-10-06T05:01:27.575Z,16.88
2022-10-06T05:02:01.790Z,15.25
2022-10-06T05:02:33.338Z,13.93
2022-10-06T05:03:05.181Z,15.55
2022-10-06T05:03:36.785Z,14.02
2022-10-06T05:04:08.315Z,14.32
2022-10-06T05:04:39.982Z,15.15
2022-10-06T05:05:11.526Z,16.98
2022-10-06T05:05:43.310Z,13.73
2022-10-06T05:06:17.825Z,15.07
2022-10-06T05:06:49.338Z,18.23
2022-10-06T05:07:20.918Z,15.13
2022-10-06T05:07:52.443Z,15.93
2022-10-06T05:08:24.175Z,14.35
2022-10-06T05:08:58.078Z,14.68
2022-10-06T05:09:29.606Z,13.75
2022-10-06T05:10:01.142Z,14.55
2022-10-06T05:10:32.679Z,15.38
2022-10-06T05:11:13.736Z,15.93
2022-10-06T05:11:48.420Z,14.88
2022-10-06T05:12:19.946Z,19.10
2022-10-06T05:12:51.474Z,14.43
2022-10-06T05:13:23.062Z,13.75
2022-10-06T05:13:56.195Z,14.43
2022-10-06T05:14:27.755Z,14.85
2022-10-06T05:14:59.723Z,15.63
2022-10-06T05:15:31.345Z,15.25
2022-10-06T05:16:04.011Z,16.00
2022-10-06T05:16:38.030Z,14.65
2022-10-06T05:17:09.793Z,12.50
2022-10-06T05:17:41.443Z,14.85
2022-10-06T05:18:13.477Z,16.27
2022-10-06T05:18:45.241Z,13.98
2022-10-06T05:19:16.874Z,16.27
2022-10-06T05:19:48.395Z,14.45
2022-10-06T05:20:22.867Z,16.52
2022-10-06T05:21:06.610Z,15.20
2022-10-06T05:21:38.534Z,14.38
2022-10-06T05:22:10.090Z,12.90
2022-10-06T05:22:41.704Z,13.95
2022-10-06T05:23:13.221Z,14.98
2022-10-06T05:23:45.772Z,15.43
2022-10-06T05:24:17.477Z,15.52
2022-10-06T05:24:53.671Z,15.80
2022-10-06T05:25:25.189Z,13.60
2022-10-06T05:25:58.166Z,14.05
2022-10-06T05:26:32.489Z,14.30
2022-10-06T05:27:04.136Z,14.88
2022-10-06T05:27:35.648Z,14.27
2022-10-06T05:28:07.201Z,16.15
2022-10-06T05:28:39.374Z,16.13
2022-10-06T05:29:10.927Z,15.88
2022-10-06T05:29:42.455Z,18.58
2022-10-06T05:30:14.118Z,17.00
2022-10-06T05:31:06.832Z,18.35
2022-10-06T05:31:40.405Z,16.13
2022-10-06T05:32:12.312Z,17.10
2022-10-06T05:32:46.401Z,19.52
2022-10-06T05:33:17.906Z,15.65
2022-10-06T05:33:49.542Z,17.23
2022-10-06T05:34:22.087Z,17.27
2022-10-06T05:34:53.599Z,17.73
2022-10-06T05:35:25.279Z,20.00
2022-10-06T05:35:59.390Z,20.13
2022-10-06T05:36:34.004Z,18.38
2022-10-06T05:37:05.632Z,19.05
2022-10-06T05:37:37.187Z,20.85
2022-10-06T05:38:11.702Z,25.80
2022-10-06T05:38:44.272Z,23.27
2022-10-06T05:39:15.794Z,23.95
2022-10-06T05:39:47.317Z,26.17
2022-10-06T05:40:18.937Z,23.70
2022-10-06T05:40:51.025Z,24.70
2022-10-06T05:41:30.999Z,25.13
2022-10-06T05:42:02.532Z,23.60
2022-10-06T05:42:34.143Z,23.63
2022-10-06T05:43:05.654Z,24.92
2022-10-06T05:43:37.922Z,25.63
2022-10-06T05:44:09.486Z,23.98
2022-10-06T05:44:41.010Z,25.90
2022-10-06T05:45:12.883Z,21.92
2022-10-06T05:45:58.822Z,21.75
2022-10-06T05:46:32.331Z,21.27
2022-10-06T05:47:03.884Z,18.20
2022-10-06T05:47:35.471Z,21.55
2022-10-06T05:48:07.008Z,18.73
2022-10-06T05:48:38.520Z,18.60
2022-10-06T05:49:11.444Z,16.52
2022-10-06T05:49:42.983Z,19.95
2022-10-06T05:50:15.110Z,18.23
2022-10-06T05:50:46.642Z,19.95
2022-10-06T05:51:20.358Z,20.48
2022-10-06T05:51:53.143Z,19.08
2022-10-06T05:52:24.660Z,21.35
2022-10-06T05:52:57.156Z,22.70
2022-10-06T05:53:30.397Z,26.70
2022-10-06T05:54:02.658Z,21.67
2022-10-06T05:54:34.238Z,23.98
2022-10-06T05:55:06.228Z,24.58
2022-10-06T05:55:37.738Z,21.02
2022-10-06T05:56:11.738Z,22.25
2022-10-06T05:56:43.436Z,22.45
2022-10-06T05:57:14.950Z,22.15
2022-10-06T05:57:46.542Z,21.15
2022-10-06T05:58:18.645Z,24.15
2022-10-06T05:58:52.534Z,23.73
2022-10-06T05:59:24.099Z,24.35
2022-10-06T05:59:55.660Z,24.20
2022-10-06T06:00:27.239Z,21.15
2022-10-06T06:01:35.416Z,22.90
2022-10-06T06:02:09.140Z,20.33
2022-10-06T06:02:40.810Z,23.02
2022-10-06T06:03:12.679Z,23.67
2022-10-06T06:03:48.897Z,21.75
2022-10-06T06:04:20.492Z,22.35
2022-10-06T06:04:52.006Z,23.33
2022-10-06T06:05:23.581Z,24.23
2022-10-06T06:05:55.103Z,25.48
2022-10-06T06:06:32.241Z,22.17
2022-10-06T06:07:03.759Z,22.63
2022-10-06T06:07:35.276Z,19.15
2022-10-06T06:08:06.831Z,18.15
2022-10-06T06:08:38.371Z,18.02
2022-10-06T06:09:18.289Z,20.95
2022-10-06T06:09:49.838Z,20.35
2022-10-06T06:10:21.438Z,19.10
2022-10-06T06:10:52.957Z,19.40
2022-10-06T06:11:27.570Z,18.70
2022-10-06T06:12:00.123Z,18.30
2022-10-06T06:12:31.803Z,21.08
2022-10-06T06:13:04.109Z,18.83
2022-10-06T06:13:36.414Z,20.10
2022-10-06T06:14:12.639Z,16.65
2022-10-06T06:15:02.687Z,16.55
2022-10-06T06:15:58.350Z,20.13
2022-10-06T06:16:33.798Z,19.90
2022-10-06T06:17:05.622Z,19.42
2022-10-06T06:17:37.153Z,18.45
2022-10-06T06:18:09.593Z,20.58
2022-10-06T06:18:41.747Z,17.35
2022-10-06T06:19:14.357Z,17.45
2022-10-06T06:19:45.885Z,18.05
2022-10-06T06:20:17.419Z,21.00
2022-10-06T06:20:59.212Z,18.65
2022-10-06T06:21:30.773Z,19.45
2022-10-06T06:22:02.405Z,19.73
2022-10-06T06:22:35.858Z,19.65
2022-10-06T06:23:07.381Z,18.63
2022-10-06T06:23:42.619Z,19.85
2022-10-06T06:24:14.175Z,18.23
2022-10-06T06:24:45.757Z,18.23
2022-10-06T06:25:17.315Z,19.23
2022-10-06T06:26:02.285Z,23.40
2022-10-06T06:26:36.975Z,19.77
2022-10-06T06:27:08.536Z,17.20
2022-10-06T06:27:40.617Z,22.67
2022-10-06T06:28:12.155Z,18.98
2022-10-06T06:28:48.698Z,17.80
2022-10-06T06:29:20.298Z,17.40
2022-10-06T06:29:51.808Z,14.90
2022-10-06T06:30:24.374Z,20.30
2022-10-06T06:31:19.167Z,20.05
2022-10-06T06:31:51.886Z,18.15
2022-10-06T06:32:23.442Z,19.60
2022-10-06T06:32:58.100Z,18.48
2022-10-06T06:33:30.718Z,17.08
2022-10-06T06:34:04.728Z,21.35
2022-10-06T06:34:36.289Z,18.88
2022-10-06T06:35:08.270Z,16.33
2022-10-06T06:35:39.793Z,20.35
2022-10-06T06:36:20.112Z,17.33
2022-10-06T06:36:55.079Z,17.63
2022-10-06T06:37:26.661Z,16.67
2022-10-06T06:37:59.442Z,18.10
2022-10-06T06:38:32.161Z,18.38
2022-10-06T06:39:06.863Z,17.05
2022-10-06T06:39:38.398Z,17.02
2022-10-06T06:40:10.040Z,19.02
2022-10-06T06:40:41.697Z,19.27
2022-10-06T06:41:19.368Z,18.80
2022-10-06T06:41:51.240Z,19.10
2022-10-06T06:42:22.760Z,16.65
2022-10-06T06:42:54.963Z,16.30
2022-10-06T06:43:27.146Z,18.27
2022-10-06T06:44:01.765Z,21.67
2022-10-06T06:44:34.806Z,18.55
2022-10-06T06:45:07.226Z,18.10
2022-10-06T06:45:39.047Z,21.02
2022-10-06T06:46:11.556Z,18.33
2022-10-06T06:46:47.598Z,21.27
2022-10-06T06:47:20.887Z,19.83
2022-10-06T06:47:54.646Z,17.27
2022-10-06T06:48:26.373Z,19.83
2022-10-06T06:49:01.219Z,21.38
2022-10-06T06:49:32.752Z,20.88
2022-10-06T06:50:10.165Z,21.83
2022-10-06T06:50:43.626Z,19.25
2022-10-06T06:51:15.208Z,17.02
2022-10-06T06:51:49.899Z,17.25
2022-10-06T06:52:21.514Z,22.35
2022-10-06T06:52:55.101Z,19.00
2022-10-06T06:53:26.755Z,18.90
2022-10-06T06:54:00.898Z,20.02
2022-10-06T06:54:32.451Z,21.63
2022-10-06T06:55:04.272Z,20.45
2022-10-06T06:55:35.895Z,24.20
2022-10-06T06:56:09.223Z,21.60
2022-10-06T06:56:41.349Z,22.20
2022-10-06T06:57:12.896Z,25.45
2022-10-06T06:57:46.466Z,25.33
2022-10-06T06:58:19.730Z,22.00
2022-10-06T06:58:51.563Z,19.65
2022-10-06T06:59:23.171Z,20.70
2022-10-06T06:59:56.080Z,22.98
2022-10-06T07:00:28.357Z,23.38
2022-10-06T07:01:20.889Z,23.00
2022-10-06T07:01:53.231Z,23.08
2022-10-06T07:02:29.878Z,21.73
2022-10-06T07:03:02.395Z,18.77
2022-10-06T07:03:56.214Z,23.38
2022-10-06T07:04:25.676Z,20.92
2022-10-06T07:04:57.227Z,20.30
2022-10-06T07:05:28.798Z,22.07
2022-10-06T07:06:09.455Z,21.08
2022-10-06T07:06:42.262Z,21.88
2022-10-06T07:07:13.883Z,20.98
2022-10-06T07:07:47.023Z,18.08
2022-10-06T07:08:21.106Z,17.70